Time;durP1;ratioP1;P1;durP2;ratioP2;P2;SDS_P1;SDS_P2;PMS_P1;PMS_P2;Temp;Humidity;BMP_temperature;BMP_pressure;BME280_temperature;BME280_humidity;BME280_pressure;Samples;Min_cycle;Max_cycle;Signal;HPM_P1;HPM_P2
2021/01/11 00:01:19;;;;;;;89.45;38.50;;;4.40;98.00;;;;;;5117584;28;20059;-72
2021/01/11 00:03:45;;;;;;;80.88;37.25;;;4.30;98.00;;;;;;5106455;28;20048;-72
2021/01/11 00:06:11;;;;;;;83.15;36.97;;;4.30;98.30;;;;;;5107026;28;20044;-72
2021/01/11 00:08:36;;;;;;;81.15;36.58;;;4.30;98.00;;;;;;5111359;27;20500;-72
2021/01/11 00:11:02;;;;;;;83.47;36.78;;;4.30;98.20;;;;;;5106321;28;20069;-72
2021/01/11 00:13:28;;;;;;;82.13;37.25;;;4.20;98.40;;;;;;5111376;27;20071;-71
2021/01/11 00:15:54;;;;;;;82.22;36.60;;;4.20;98.50;;;;;;5106086;28;20515;-72
2021/01/11 00:18:19;;;;;;;79.13;35.78;;;4.30;98.30;;;;;;5105972;28;20052;-72
2021/01/11 00:20:45;;;;;;;77.72;35.03;;;4.30;98.10;;;;;;5105777;28;20147;-71
2021/01/11 00:23:11;;;;;;;72.35;36.80;;;4.20;98.50;;;;;;5106828;28;20048;-72
2021/01/11 00:25:37;;;;;;;75.85;35.30;;;4.30;98.10;;;;;;5105659;28;20043;-72
2021/01/11 00:28:03;;;;;;;77.32;36.72;;;4.30;98.30;;;;;;5105695;28;20052;-72
2021/01/11 00:30:29;;;;;;;74.05;35.55;;;4.30;97.90;;;;;;5105753;28;20040;-71
2021/01/11 00:32:55;;;;;;;71.10;36.22;;;4.30;98.00;;;;;;5106067;28;20419;-72
2021/01/11 00:35:21;;;;;;;70.97;34.30;;;4.30;98.10;;;;;;5105718;27;20044;-72
2021/01/11 00:37:47;;;;;;;71.95;37.13;;;4.40;97.80;;;;;;5119020;28;20048;-72
2021/01/11 00:40:12;;;;;;;62.55;32.72;;;4.40;97.50;;;;;;5106771;27;20044;-72
2021/01/11 00:42:38;;;;;;;69.20;33.17;;;4.40;98.20;;;;;;5106209;28;20484;-71
2021/01/11 00:45:06;;;;;;;65.68;34.13;;;4.40;97.50;;;;;;5121511;27;20059;-72
2021/01/11 00:47:40;;;;;;;72.30;34.67;;;4.40;97.50;;;;;;5105545;28;20076;-72
2021/01/11 00:50:07;;;;;;;66.60;35.30;;;4.40;97.50;;;;;;5105310;28;20048;-72
2021/01/11 00:52:37;;;;;;;63.88;33.53;;;4.30;97.80;;;;;;5105386;28;20044;-72
2021/01/11 00:55:06;;;;;;;61.80;32.57;;;4.40;97.60;;;;;;5107228;28;20108;-72
2021/01/11 00:57:32;;;;;;;65.10;31.75;;;4.40;97.70;;;;;;5105359;28;20385;-72
2021/01/11 00:59:58;;;;;;;63.22;33.80;;;4.30;97.80;;;;;;5119336;28;20116;-72
2021/01/11 01:02:24;;;;;;;59.35;32.70;;;4.50;97.50;;;;;;5105620;28;20047;-72
2021/01/11 01:04:50;;;;;;;61.83;32.45;;;4.60;97.20;;;;;;5105889;28;20044;-72
2021/01/11 01:07:16;;;;;;;59.95;32.17;;;4.60;97.00;;;;;;5108373;28;20036;-72
2021/01/11 01:09:42;;;;;;;64.13;33.53;;;4.50;97.30;;;;;;5105641;27;20044;-71
2021/01/11 01:12:07;;;;;;;62.33;34.10;;;4.60;96.80;;;;;;5104944;28;20040;-72
2021/01/11 01:14:33;;;;;;;63.72;31.67;;;4.50;97.40;;;;;;5109165;28;20056;-72
2021/01/11 01:16:59;;;;;;;63.50;30.25;;;4.50;97.30;;;;;;5104789;28;20048;-72
2021/01/11 01:19:25;;;;;;;63.00;31.83;;;4.60;97.30;;;;;;5105800;28;20123;-72
2021/01/11 01:21:51;;;;;;;64.13;33.83;;;4.50;97.30;;;;;;5104631;28;20040;-72
2021/01/11 01:24:16;;;;;;;66.80;32.20;;;4.50;97.40;;;;;;5104949;28;20036;-72
2021/01/11 01:26:42;;;;;;;75.90;35.03;;;4.50;97.60;;;;;;5104527;28;20142;-72
2021/01/11 01:29:08;;;;;;;69.13;33.50;;;4.40;97.80;;;;;;5104667;28;20503;-72
2021/01/11 01:31:34;;;;;;;69.22;33.90;;;4.50;97.90;;;;;;5104871;28;20079;-72
2021/01/11 01:34:00;;;;;;;76.35;34.70;;;4.40;97.90;;;;;;5105745;28;20142;-72
2021/01/11 01:36:26;;;;;;;71.78;33.58;;;4.30;97.90;;;;;;5104789;28;20048;-72
2021/01/11 01:38:52;;;;;;;71.95;33.88;;;4.40;97.80;;;;;;5104741;28;20095;-72
2021/01/11 01:41:18;;;;;;;68.80;31.27;;;4.40;97.60;;;;;;5104671;28;20048;-72
2021/01/11 01:43:43;;;;;;;59.60;30.40;;;4.40;97.80;;;;;;5113853;28;20055;-72
2021/01/11 01:46:15;;;;;;;61.05;32.47;;;4.30;97.80;;;;;;5104394;28;20036;-72
2021/01/11 01:48:41;;;;;;;63.03;30.55;;;4.30;97.80;;;;;;5104895;28;20040;-72
2021/01/11 01:51:07;;;;;;;64.68;31.52;;;4.40;97.70;;;;;;5106394;28;20093;-72
2021/01/11 01:53:33;;;;;;;56.67;26.75;;;4.40;97.70;;;;;;5116427;28;20509;-72
2021/01/11 01:56:00;;;;;;;53.67;30.65;;;4.40;97.80;;;;;;5112979;28;20134;-72
2021/01/11 01:58:26;;;;;;;52.67;28.40;;;4.30;97.60;;;;;;5110724;28;20044;-72
2021/01/11 02:00:52;;;;;;;49.60;25.80;;;4.40;97.50;;;;;;5108106;28;20052;-72
2021/01/11 02:03:18;;;;;;;47.60;27.38;;;4.40;97.30;;;;;;5117670;28;20051;-72
2021/01/11 02:05:43;;;;;;;45.35;25.55;;;4.30;97.50;;;;;;5104705;28;20048;-72
2021/01/11 02:08:25;;;;;;;47.95;25.83;;;4.30;97.50;;;;;;5104445;28;20040;-72
2021/01/11 02:11:04;;;;;;;50.63;27.13;;;4.40;97.20;;;;;;5104430;28;20048;-72
2021/01/11 02:14:01;;;;;;;58.25;28.60;;;4.30;97.50;;;;;;5104328;28;20043;-72
2021/01/11 02:16:57;;;;;;;57.13;29.27;;;4.20;97.60;;;;;;5104241;28;20043;-72
2021/01/11 02:19:57;;;;;;;63.60;30.92;;;4.10;98.10;;;;;;5109669;28;20052;-72
2021/01/11 02:22:45;;;;;;;58.83;26.20;;;4.20;98.10;;;;;;5116595;28;20131;-71
2021/01/11 02:25:34;;;;;;;59.63;28.52;;;4.20;98.10;;;;;;5116384;28;20068;-72
2021/01/11 02:28:16;;;;;;;62.20;31.38;;;4.20;98.00;;;;;;5104378;28;20040;-71
2021/01/11 02:30:45;;;;;;;59.53;28.88;;;4.20;97.90;;;;;;5103932;28;20052;-72
2021/01/11 02:33:16;;;;;;;61.10;29.27;;;4.20;98.30;;;;;;5104038;28;20048;-72
2021/01/11 02:35:48;;;;;;;64.00;30.15;;;4.20;97.80;;;;;;5104671;28;20046;-72
2021/01/11 02:38:20;;;;;;;53.05;26.30;;;4.30;97.50;;;;;;5120902;28;20052;-72
2021/01/11 02:40:47;;;;;;;57.60;28.45;;;4.30;97.60;;;;;;5107813;28;20047;-72
2021/01/11 02:43:13;;;;;;;54.58;26.58;;;4.20;97.60;;;;;;5114192;28;20567;-72
2021/01/11 02:45:39;;;;;;;51.15;27.15;;;4.20;97.70;;;;;;5114186;27;20081;-72
2021/01/11 02:48:13;;;;;;;47.90;25.30;;;4.30;97.40;;;;;;5107647;28;20070;-72
2021/01/11 02:50:48;;;;;;;51.90;26.73;;;4.40;97.10;;;;;;5107298;28;20040;-72
2021/01/11 02:53:50;;;;;;;50.65;27.48;;;4.30;96.80;;;;;;5107843;28;20086;-72
2021/01/11 02:56:47;;;;;;;51.70;24.50;;;4.30;97.30;;;;;;5111582;28;20044;-72
2021/01/11 02:59:24;;;;;;;46.28;24.17;;;4.40;96.90;;;;;;5117059;28;20044;-72
2021/01/11 03:02:05;;;;;;;47.20;27.27;;;4.20;97.20;;;;;;5115293;28;20040;-72
2021/01/11 03:04:32;;;;;;;52.42;26.58;;;4.40;96.70;;;;;;5119291;28;20067;-72
2021/01/11 03:07:03;;;;;;;54.85;29.42;;;4.20;97.10;;;;;;5112193;28;20070;-72
2021/01/11 03:09:30;;;;;;;45.83;26.08;;;4.10;97.30;;;;;;5107244;28;20109;-72
2021/01/11 03:11:57;;;;;;;49.75;27.40;;;4.10;97.40;;;;;;5107100;28;20059;-72
2021/01/11 03:14:26;;;;;;;54.95;29.52;;;4.20;97.50;;;;;;5112872;28;20040;-72
2021/01/11 03:16:52;;;;;;;45.40;26.95;;;4.20;97.20;;;;;;5106586;28;20130;-72
2021/01/11 03:19:18;;;;;;;54.03;28.17;;;4.20;97.50;;;;;;5106909;28;20503;-72
2021/01/11 03:21:44;;;;;;;50.20;27.20;;;4.20;97.40;;;;;;5107227;28;20124;-72
2021/01/11 03:24:13;;;;;;;55.45;30.23;;;4.20;97.20;;;;;;5107305;28;20040;-72
2021/01/11 03:26:38;;;;;;;55.92;29.98;;;4.20;97.50;;;;;;5115528;27;20050;-72
2021/01/11 03:29:04;;;;;;;57.95;29.42;;;4.10;97.70;;;;;;5110546;28;20040;-72
2021/01/11 03:31:30;;;;;;;50.80;29.23;;;4.10;97.80;;;;;;5107098;28;20068;-72
2021/01/11 03:33:56;;;;;;;50.47;27.75;;;4.10;97.90;;;;;;5107687;27;20065;-72
2021/01/11 03:36:23;;;;;;;54.47;28.25;;;4.20;97.60;;;;;;5106706;28;20108;-72
2021/01/11 03:38:48;;;;;;;46.42;26.50;;;4.10;97.80;;;;;;5106581;28;20048;-72
2021/01/11 03:41:16;;;;;;;50.30;29.42;;;4.10;97.80;;;;;;5106922;28;20051;-72
2021/01/11 03:43:43;;;;;;;49.72;27.52;;;4.10;97.70;;;;;;5123367;27;20043;-72
2021/01/11 03:46:11;;;;;;;48.15;26.70;;;4.30;97.20;;;;;;5106609;28;20044;-72
2021/01/11 03:48:37;;;;;;;45.33;26.52;;;4.20;97.40;;;;;;5105619;27;20056;-72
2021/01/11 03:51:03;;;;;;;39.97;26.20;;;4.30;97.30;;;;;;5113735;28;20404;-72
2021/01/11 03:53:29;;;;;;;46.63;25.38;;;4.30;97.20;;;;;;5111683;28;20070;-72
2021/01/11 03:55:56;;;;;;;42.05;27.20;;;4.30;97.40;;;;;;5115505;28;20047;-72
2021/01/11 03:58:22;;;;;;;44.33;25.98;;;4.20;97.40;;;;;;5116232;28;20051;-72
2021/01/11 04:00:49;;;;;;;44.20;24.45;;;4.20;97.50;;;;;;5114157;28;20032;-72
2021/01/11 04:03:15;;;;;;;43.08;25.80;;;4.30;97.20;;;;;;5106175;28;20048;-72
2021/01/11 04:05:47;;;;;;;50.15;28.75;;;4.30;97.20;;;;;;5106236;28;20040;-72
2021/01/11 04:08:14;;;;;;;42.08;25.63;;;4.20;97.40;;;;;;5108171;28;20040;-72
2021/01/11 04:10:40;;;;;;;49.47;27.65;;;4.30;97.40;;;;;;5106043;28;20043;-72
2021/01/11 04:13:06;;;;;;;45.60;27.08;;;4.30;97.30;;;;;;5109535;27;20036;-72
2021/01/11 04:15:32;;;;;;;49.88;30.10;;;4.40;96.90;;;;;;5119563;28;20498;-72
2021/01/11 04:17:58;;;;;;;50.05;29.17;;;4.30;97.00;;;;;;5105795;28;20060;-72
2021/01/11 04:20:25;;;;;;;51.00;30.98;;;4.40;96.80;;;;;;5105647;28;20050;-71
2021/01/11 04:22:50;;;;;;;51.33;29.65;;;4.30;97.30;;;;;;5106095;28;20040;-72
2021/01/11 04:25:17;;;;;;;50.63;31.25;;;4.40;97.10;;;;;;5105510;28;20111;-72
2021/01/11 04:27:43;;;;;;;52.83;32.08;;;4.40;97.00;;;;;;5105653;28;20056;-72
2021/01/11 04:30:10;;;;;;;50.38;28.42;;;4.30;97.40;;;;;;5111926;28;20093;-72
2021/01/11 04:32:36;;;;;;;52.75;25.13;;;4.50;97.00;;;;;;5112473;28;20057;-72
2021/01/11 04:35:04;;;;;;;54.85;28.90;;;4.50;96.80;;;;;;5105755;28;20059;-72
2021/01/11 04:37:30;;;;;;;48.55;26.27;;;4.40;97.00;;;;;;5105529;28;20044;-71
2021/01/11 04:39:56;;;;;;;49.88;28.20;;;4.40;97.20;;;;;;5105290;28;20098;-72
2021/01/11 04:42:48;;;;;;;56.05;28.75;;;4.50;96.80;;;;;;5106196;28;20048;-72
2021/01/11 04:45:14;;;;;;;49.53;27.50;;;4.40;96.90;;;;;;5094980;28;20060;-72
2021/01/11 04:47:42;;;;;;;53.95;27.67;;;4.50;96.80;;;;;;5118764;28;20048;-72
2021/01/11 04:50:08;;;;;;;55.33;30.75;;;4.40;96.90;;;;;;5105480;27;20048;-72
2021/01/11 04:52:34;;;;;;;57.35;28.42;;;4.40;96.80;;;;;;5112635;28;20097;-71
2021/01/11 04:55:07;;;;;;;60.72;29.17;;;4.50;96.70;;;;;;5110709;28;20048;-72
2021/01/11 04:57:38;;;;;;;52.42;29.30;;;4.40;96.90;;;;;;5104957;28;20157;-72
2021/01/11 05:00:09;;;;;;;58.90;29.58;;;4.40;97.00;;;;;;5115122;28;20051;-72
2021/01/11 05:02:43;;;;;;;53.95;26.98;;;4.40;97.00;;;;;;5105037;28;20792;-72
2021/01/11 05:05:10;;;;;;;58.80;28.98;;;4.40;96.90;;;;;;5104988;28;20048;-72
2021/01/11 05:07:36;;;;;;;49.88;24.10;;;4.30;97.20;;;;;;5106065;28;20048;-72
2021/01/11 05:10:03;;;;;;;63.53;33.00;;;4.50;96.90;;;;;;5104872;28;20048;-72
2021/01/11 05:12:29;;;;;;;52.10;23.92;;;4.40;97.10;;;;;;5105134;28;20055;-72
2021/01/11 05:15:15;;;;;;;53.70;26.42;;;4.50;96.90;;;;;;5120326;28;20062;-72
2021/01/11 05:17:45;;;;;;;53.88;26.42;;;4.50;96.70;;;;;;5105803;28;20086;-72
2021/01/11 05:20:24;;;;;;;60.65;30.63;;;4.50;96.80;;;;;;5104877;28;20044;-71
2021/01/11 05:22:53;;;;;;;54.50;23.83;;;4.30;97.30;;;;;;5105466;28;20128;-71
2021/01/11 05:25:21;;;;;;;56.55;28.55;;;4.40;97.00;;;;;;5105627;28;20081;-72
2021/01/11 05:28:06;;;;;;;54.67;28.35;;;4.50;97.20;;;;;;5104609;28;20408;-72
2021/01/11 05:30:39;;;;;;;57.55;30.00;;;4.50;96.80;;;;;;5104646;28;20043;-72
2021/01/11 05:33:07;;;;;;;60.60;31.30;;;4.40;96.70;;;;;;5105088;28;20040;-72
2021/01/11 05:35:34;;;;;;;63.42;31.35;;;4.30;97.20;;;;;;5103639;28;20070;-72
2021/01/11 05:38:01;;;;;;;66.40;30.10;;;4.30;97.10;;;;;;5104662;28;20054;-72
2021/01/11 05:40:28;;;;;;;60.50;29.60;;;4.40;97.30;;;;;;5104746;28;20073;-72
2021/01/11 05:42:56;;;;;;;65.65;31.60;;;4.40;97.20;;;;;;5109303;28;20048;-72
2021/01/11 05:45:28;;;;;;;61.67;29.23;;;4.30;97.40;;;;;;5105007;28;20044;-72
2021/01/11 05:48:04;;;;;;;56.67;27.73;;;4.30;97.30;;;;;;5104705;28;20080;-71
2021/01/11 05:50:38;;;;;;;61.10;30.90;;;4.50;97.00;;;;;;5103869;28;20040;-73
2021/01/11 05:53:16;;;;;;;59.10;29.45;;;4.50;96.90;;;;;;5123370;28;20071;-81
2021/01/11 05:55:42;;;;;;;63.15;30.88;;;4.60;96.60;;;;;;5106803;28;20063;-73
2021/01/11 05:58:08;;;;;;;65.97;31.73;;;4.60;96.70;;;;;;5104534;28;20044;-73
2021/01/11 06:00:36;;;;;;;66.45;32.05;;;4.40;97.10;;;;;;5102052;28;20055;-71
2021/01/11 06:03:04;;;;;;;63.42;32.80;;;4.40;97.40;;;;;;5105940;28;20446;-73
2021/01/11 06:05:31;;;;;;;60.75;32.33;;;4.40;97.20;;;;;;5095564;28;20055;-71
2021/01/11 06:07:58;;;;;;;68.05;31.33;;;4.40;97.30;;;;;;5114836;28;20044;-73
2021/01/11 06:10:25;;;;;;;61.00;27.85;;;4.50;96.90;;;;;;5101220;28;20071;-74
2021/01/11 06:12:51;;;;;;;63.22;30.30;;;4.50;96.90;;;;;;5118077;28;20073;-72
2021/01/11 06:15:22;;;;;;;65.35;33.88;;;4.60;96.70;;;;;;5112232;28;20050;-73
2021/01/11 06:17:50;;;;;;;64.20;34.00;;;4.40;97.00;;;;;;5121468;28;20062;-72
2021/01/11 06:20:18;;;;;;;62.30;30.77;;;4.30;97.20;;;;;;5109820;28;20066;-71
2021/01/11 06:22:44;;;;;;;69.32;32.55;;;4.40;97.10;;;;;;5104737;28;20079;-71
2021/01/11 06:25:30;;;;;;;63.70;29.40;;;4.50;96.60;;;;;;5087299;28;20048;-70
2021/01/11 06:28:01;;;;;;;57.75;29.98;;;4.50;96.20;;;;;;5093603;28;20040;-70
2021/01/11 06:30:41;;;;;;;61.60;32.03;;;4.50;96.00;;;;;;5087805;28;20109;-82
2021/01/11 06:33:06;;;;;;;65.55;32.28;;;4.40;96.30;;;;;;5100333;28;20425;-87
2021/01/11 06:35:41;;;;;;;75.72;34.28;;;4.40;96.40;;;;;;5089220;28;20050;-72
2021/01/11 06:38:17;;;;;;;70.30;34.25;;;4.30;96.50;;;;;;5090725;28;20044;-72
2021/01/11 06:40:54;;;;;;;73.95;37.63;;;4.30;96.40;;;;;;5083122;28;20045;-71
2021/01/11 06:43:22;;;;;;;62.97;27.55;;;4.30;96.40;;;;;;5093708;28;20044;-71
2021/01/11 06:45:50;;;;;;;60.83;31.27;;;4.30;96.50;;;;;;5104283;28;20036;-71
2021/01/11 06:48:18;;;;;;;66.22;34.25;;;4.40;96.10;;;;;;5098843;28;20044;-71
2021/01/11 06:50:46;;;;;;;77.28;37.17;;;4.30;96.50;;;;;;5080845;28;20128;-71
2021/01/11 06:53:13;;;;;;;76.30;35.83;;;4.10;96.70;;;;;;5094716;28;20048;-71
2021/01/11 06:55:39;;;;;;;67.68;32.45;;;4.20;96.60;;;;;;5086165;28;20052;-70
2021/01/11 06:58:05;;;;;;;74.78;37.35;;;4.30;96.50;;;;;;5097070;28;20086;-70
2021/01/11 07:00:39;;;;;;;73.18;35.95;;;4.20;96.60;;;;;;5085061;28;20074;-71
2021/01/11 07:03:07;;;;;;;78.70;37.28;;;4.10;96.70;;;;;;5096000;28;20040;-73
2021/01/11 07:05:33;;;;;;;71.78;31.45;;;4.10;96.60;;;;;;5083196;28;20041;-72
2021/01/11 07:08:04;;;;;;;69.38;30.58;;;4.10;96.70;;;;;;5094646;28;20101;-72
2021/01/11 07:10:31;;;;;;;81.63;38.45;;;4.10;96.70;;;;;;5087091;28;20051;-73
2021/01/11 07:13:19;;;;;;;80.75;37.33;;;4.10;96.60;;;;;;5084305;28;20051;-73
2021/01/11 07:16:05;;;;;;;75.63;34.22;;;4.00;96.90;;;;;;5085099;28;20048;-72
2021/01/11 07:18:37;;;;;;;83.75;37.33;;;4.00;96.90;;;;;;5095293;28;20040;-72
2021/01/11 07:21:17;;;;;;;81.45;33.53;;;4.00;96.90;;;;;;5090901;28;20036;-72
2021/01/11 07:23:44;;;;;;;76.72;31.25;;;4.10;96.60;;;;;;5094804;28;20052;-72
2021/01/11 07:26:17;;;;;;;86.07;36.55;;;4.20;96.40;;;;;;5090419;28;20522;-72
2021/01/11 07:29:04;;;;;;;73.15;34.35;;;4.10;96.60;;;;;;5094885;28;20082;-72
2021/01/11 07:31:43;;;;;;;71.35;33.97;;;4.10;96.40;;;;;;5086242;28;20056;-72
2021/01/11 07:34:11;;;;;;;76.60;31.95;;;4.00;96.60;;;;;;5098253;28;20043;-72
2021/01/11 07:36:40;;;;;;;81.18;35.90;;;4.00;96.70;;;;;;5087922;28;20048;-72
2021/01/11 07:39:24;;;;;;;78.60;31.95;;;4.00;96.90;;;;;;5100900;28;20066;-72
2021/01/11 07:41:53;;;;;;;66.43;28.10;;;4.10;96.50;;;;;;5087130;28;20076;-72
2021/01/11 07:44:39;;;;;;;74.95;33.97;;;4.40;96.10;;;;;;5098363;28;20044;-72
2021/01/11 07:47:07;;;;;;;74.82;29.38;;;4.20;96.20;;;;;;5069781;28;20135;-72
2021/01/11 07:49:41;;;;;;;69.57;30.50;;;4.30;96.20;;;;;;5098265;28;20044;-72
2021/01/11 07:52:07;;;;;;;75.32;32.92;;;4.20;96.20;;;;;;5069677;28;20056;-73
2021/01/11 07:54:34;;;;;;;76.38;32.95;;;4.10;96.50;;;;;;5099828;28;20249;-70
2021/01/11 07:56:59;;;;;;;78.63;31.30;;;4.20;96.30;;;;;;5085335;28;20052;-69
2021/01/11 07:59:25;;;;;;;87.35;33.50;;;4.20;96.20;;;;;;5098215;28;20050;-70
2021/01/11 08:01:52;;;;;;;77.43;30.40;;;4.00;96.50;;;;;;5087446;28;20352;-70
2021/01/11 08:04:18;;;;;;;80.47;34.13;;;4.10;96.70;;;;;;5094277;28;20052;-70
2021/01/11 08:06:51;;;;;;;88.15;38.63;;;4.10;96.60;;;;;;5085672;28;20093;-70
2021/01/11 08:09:18;;;;;;;78.55;32.78;;;4.00;96.60;;;;;;5098467;28;20479;-70
2021/01/11 08:11:45;;;;;;;74.30;31.08;;;4.00;96.60;;;;;;5087133;28;20071;-69
2021/01/11 08:14:11;;;;;;;79.03;29.20;;;4.00;96.80;;;;;;5097483;28;20036;-69
2021/01/11 08:16:39;;;;;;;84.40;35.38;;;4.00;97.00;;;;;;5086329;28;20102;-69
2021/01/11 08:19:12;;;;;;;76.45;32.60;;;4.00;97.00;;;;;;5098081;28;20066;-69
2021/01/11 08:21:40;;;;;;;70.63;33.10;;;4.00;96.80;;;;;;5085781;28;20048;-70
2021/01/11 08:24:09;;;;;;;81.40;31.25;;;4.00;96.60;;;;;;5094998;28;20055;-70
2021/01/11 08:26:50;;;;;;;71.78;30.67;;;4.10;97.00;;;;;;5092864;28;20301;-69
2021/01/11 08:29:16;;;;;;;71.00;29.55;;;4.10;96.50;;;;;;5097093;28;20040;-69
2021/01/11 08:31:46;;;;;;;82.00;33.30;;;4.20;96.50;;;;;;5089128;28;20134;-70
2021/01/11 08:34:12;;;;;;;67.95;27.15;;;4.10;96.50;;;;;;5095815;28;20046;-69
2021/01/11 08:36:38;;;;;;;76.43;33.00;;;4.00;96.90;;;;;;5088286;28;20048;-69
2021/01/11 08:39:10;;;;;;;72.50;29.73;;;4.10;96.60;;;;;;5096298;28;20040;-70
2021/01/11 08:41:56;;;;;;;74.50;33.58;;;4.10;96.70;;;;;;5085159;28;20062;-70
2021/01/11 08:44:27;;;;;;;74.95;34.70;;;4.30;96.30;;;;;;5097412;28;20103;-70
2021/01/11 08:47:09;;;;;;;79.22;33.65;;;4.10;96.60;;;;;;5085738;28;20052;-70
2021/01/11 08:50:00;;;;;;;80.38;32.65;;;4.10;96.80;;;;;;5097412;28;20040;-70
2021/01/11 08:52:36;;;;;;;79.35;33.53;;;4.20;96.50;;;;;;5068273;28;20044;-70
2021/01/11 08:55:09;;;;;;;94.97;38.00;;;4.20;96.40;;;;;;5087218;28;20048;-70
2021/01/11 08:57:36;;;;;;;91.43;36.78;;;4.00;97.10;;;;;;5097998;28;20036;-70
2021/01/11 09:00:12;;;;;;;78.57;34.67;;;4.00;97.00;;;;;;5086422;28;20057;-70
2021/01/11 09:02:47;;;;;;;88.95;38.97;;;4.10;96.70;;;;;;5075238;28;20072;-70
2021/01/11 09:05:18;;;;;;;81.72;36.95;;;4.20;96.60;;;;;;5083560;28;20565;-70
2021/01/11 09:07:45;;;;;;;83.47;37.50;;;4.10;96.80;;;;;;5094997;28;20069;-70
2021/01/11 09:10:24;;;;;;;95.70;38.70;;;4.10;97.00;;;;;;5073101;28;20044;-68
2021/01/11 09:12:52;;;;;;;93.47;39.15;;;4.00;97.20;;;;;;5084977;28;20500;-70
2021/01/11 09:15:28;;;;;;;98.75;40.83;;;4.00;97.60;;;;;;5085350;28;20071;-69
2021/01/11 09:18:05;;;;;;;82.22;36.72;;;4.00;97.70;;;;;;5082144;28;20044;-69
2021/01/11 09:20:35;;;;;;;67.45;28.63;;;4.20;97.30;;;;;;5086091;28;20066;-70
2021/01/11 09:23:01;;;;;;;90.10;39.80;;;4.20;97.30;;;;;;5099540;28;20647;-70
2021/01/11 09:25:28;;;;;;;91.05;41.05;;;4.20;97.20;;;;;;5098108;28;20036;-69
2021/01/11 09:27:55;;;;;;;93.03;38.78;;;4.10;97.50;;;;;;5111703;28;20075;-69
2021/01/11 09:30:21;;;;;;;80.97;38.20;;;4.20;97.20;;;;;;5107406;28;20065;-69
2021/01/11 09:32:47;;;;;;;74.45;36.13;;;4.30;97.00;;;;;;5116074;28;20044;-70
2021/01/11 09:35:17;;;;;;;79.60;40.50;;;4.20;97.10;;;;;;5098515;28;20089;-70
2021/01/11 09:37:44;;;;;;;80.30;36.90;;;4.20;97.20;;;;;;5098484;28;20093;-70
2021/01/11 09:40:11;;;;;;;85.35;39.60;;;4.30;97.10;;;;;;5103154;28;20048;-70
2021/01/11 09:42:37;;;;;;;83.22;35.78;;;4.30;96.90;;;;;;5113899;28;20051;-70
2021/01/11 09:45:05;;;;;;;85.32;39.55;;;4.20;97.30;;;;;;5094167;28;20491;-70
2021/01/11 09:47:31;;;;;;;77.15;38.22;;;4.30;97.10;;;;;;5118179;28;20056;-70
2021/01/11 09:49:57;;;;;;;83.30;40.33;;;4.40;96.90;;;;;;5104616;28;20047;-71
2021/01/11 09:52:23;;;;;;;79.78;40.58;;;4.30;97.00;;;;;;5112491;28;20048;-71
2021/01/11 09:54:49;;;;;;;72.65;37.05;;;4.40;96.80;;;;;;5115962;28;20035;-70
2021/01/11 09:57:15;;;;;;;75.25;37.53;;;4.30;97.10;;;;;;5096964;28;20239;-70
2021/01/11 09:59:41;;;;;;;72.15;38.80;;;4.50;96.70;;;;;;5115218;28;20550;-70
2021/01/11 10:02:10;;;;;;;63.38;35.50;;;4.50;96.50;;;;;;5098000;28;20048;-71
2021/01/11 10:04:36;;;;;;;70.20;37.13;;;4.50;96.30;;;;;;5100524;28;20079;-70
2021/01/11 10:07:02;;;;;;;74.60;39.33;;;4.50;96.60;;;;;;5093942;28;20054;-70
2021/01/11 10:09:29;;;;;;;71.32;40.42;;;4.40;96.60;;;;;;5120712;28;20510;-70
2021/01/11 10:12:04;;;;;;;61.13;33.17;;;4.40;96.80;;;;;;5089570;28;20040;-69
2021/01/11 10:14:30;;;;;;;61.95;34.53;;;4.50;96.70;;;;;;5124569;27;20051;-69
2021/01/11 10:16:56;;;;;;;79.55;38.70;;;4.50;96.50;;;;;;5101766;28;20051;-70
2021/01/11 10:19:28;;;;;;;69.03;38.30;;;4.60;96.40;;;;;;5120688;28;20055;-70
2021/01/11 10:21:55;;;;;;;71.57;39.45;;;4.60;96.40;;;;;;5081405;28;20559;-70
2021/01/11 10:24:23;;;;;;;60.28;31.42;;;4.50;96.60;;;;;;5099784;28;20189;-70
2021/01/11 10:26:50;;;;;;;60.85;37.03;;;4.60;96.60;;;;;;5087935;28;20056;-71
2021/01/11 10:29:18;;;;;;;58.88;35.75;;;4.50;96.70;;;;;;5099236;28;20054;-70
2021/01/11 10:31:44;;;;;;;64.82;36.38;;;4.50;96.70;;;;;;5087713;28;20044;-70
2021/01/11 10:34:11;;;;;;;62.67;36.65;;;4.50;96.90;;;;;;5099560;28;20103;-70
2021/01/11 10:36:49;;;;;;;69.03;38.58;;;4.50;96.80;;;;;;5088178;28;20044;-70
2021/01/11 10:39:20;;;;;;;63.03;37.17;;;4.50;96.70;;;;;;5099774;28;20445;-70
2021/01/11 10:41:50;;;;;;;59.50;36.17;;;4.50;96.80;;;;;;5087864;28;20047;-70
2021/01/11 10:44:16;;;;;;;55.33;33.72;;;4.50;96.80;;;;;;5099533;28;20048;-71
2021/01/11 10:46:42;;;;;;;60.03;34.08;;;4.40;97.00;;;;;;5087948;28;20048;-70
2021/01/11 10:49:08;;;;;;;52.67;31.83;;;4.50;96.80;;;;;;5099465;28;20044;-71
2021/01/11 10:51:34;;;;;;;54.60;33.03;;;4.60;96.50;;;;;;5088512;28;20055;-71
2021/01/11 10:54:00;;;;;;;45.55;28.63;;;4.60;96.30;;;;;;5101834;28;20587;-70
2021/01/11 10:56:26;;;;;;;46.83;28.02;;;4.70;96.20;;;;;;5087583;28;20048;-70
2021/01/11 10:58:52;;;;;;;48.75;30.17;;;4.90;95.80;;;;;;5098877;28;20303;-70
2021/01/11 11:01:18;;;;;;;52.67;30.42;;;4.80;95.90;;;;;;5089870;28;20150;-71
2021/01/11 11:03:44;;;;;;;45.55;30.77;;;4.80;95.90;;;;;;5100958;28;20063;-71
2021/01/11 11:06:11;;;;;;;46.83;30.30;;;4.80;95.60;;;;;;5090478;28;20151;-70
2021/01/11 11:08:37;;;;;;;48.97;32.03;;;4.70;95.90;;;;;;5109045;28;20048;-71
2021/01/11 11:11:03;;;;;;;42.65;24.58;;;4.70;96.10;;;;;;5090050;28;20619;-71
2021/01/11 11:13:30;;;;;;;45.90;30.88;;;4.80;96.30;;;;;;5083373;28;20040;-70
2021/01/11 11:15:56;;;;;;;45.53;30.25;;;4.80;96.00;;;;;;5087294;28;20135;-71
2021/01/11 11:18:22;;;;;;;45.33;29.98;;;4.80;95.80;;;;;;5097838;28;20750;-71
2021/01/11 11:20:48;;;;;;;52.25;30.65;;;4.90;95.60;;;;;;5085700;28;20102;-71
2021/01/11 11:23:14;;;;;;;47.90;30.80;;;4.90;95.70;;;;;;5088937;28;20056;-72
2021/01/11 11:25:44;;;;;;;49.67;31.23;;;4.90;95.70;;;;;;5087635;28;20043;-72
2021/01/11 11:28:10;;;;;;;52.20;31.92;;;4.80;96.00;;;;;;5094057;28;20625;-70
2021/01/11 11:30:36;;;;;;;41.95;28.40;;;4.80;96.20;;;;;;5087407;28;20052;-72
2021/01/11 11:33:02;;;;;;;44.45;28.83;;;4.80;96.10;;;;;;5093381;28;20391;-71
2021/01/11 11:35:29;;;;;;;49.28;30.50;;;4.80;96.10;;;;;;5085119;28;20572;-71
2021/01/11 11:37:55;;;;;;;42.90;30.33;;;4.70;96.20;;;;;;5087998;28;20032;-70
2021/01/11 11:40:21;;;;;;;47.20;29.67;;;4.70;96.00;;;;;;5088949;28;20054;-69
2021/01/11 11:42:47;;;;;;;43.45;31.00;;;4.60;96.40;;;;;;5092452;28;20463;-70
2021/01/11 11:45:15;;;;;;;45.08;30.38;;;4.60;96.10;;;;;;5087277;28;20054;-70
2021/01/11 11:47:42;;;;;;;48.00;30.58;;;4.80;95.80;;;;;;5097168;28;20040;-73
2021/01/11 11:50:13;;;;;;;44.67;30.52;;;4.80;96.20;;;;;;5098697;28;20036;-69
2021/01/11 11:52:39;;;;;;;44.63;29.45;;;4.60;96.00;;;;;;5069689;28;20107;-67
2021/01/11 11:55:07;;;;;;;43.33;29.98;;;4.60;96.20;;;;;;5076755;28;20062;-70
2021/01/11 11:57:33;;;;;;;42.90;30.02;;;4.70;95.70;;;;;;5073087;28;20072;-71
2021/01/11 11:59:59;;;;;;;41.58;27.30;;;4.70;95.80;;;;;;5092890;28;20044;-71
2021/01/11 12:02:25;;;;;;;46.30;27.92;;;5.00;95.50;;;;;;5083461;28;20056;-70
2021/01/11 12:04:51;;;;;;;39.33;27.27;;;5.00;95.30;;;;;;5088413;28;20103;-70
2021/01/11 12:07:18;;;;;;;42.22;31.02;;;5.00;95.30;;;;;;5071708;28;20056;-70
2021/01/11 12:09:44;;;;;;;41.35;31.38;;;4.80;95.80;;;;;;5095502;28;20120;-71
2021/01/11 12:12:14;;;;;;;38.22;26.85;;;4.80;95.80;;;;;;5085298;28;20079;-70
2021/01/11 12:14:40;;;;;;;45.78;31.60;;;4.90;95.80;;;;;;5091085;28;20036;-70
2021/01/11 12:17:07;;;;;;;41.47;29.05;;;4.90;95.70;;;;;;5084465;28;20040;-70
2021/01/11 12:19:33;;;;;;;36.70;28.52;;;4.90;95.60;;;;;;5090407;28;20044;-69
2021/01/11 12:21:59;;;;;;;42.90;28.58;;;5.00;95.30;;;;;;5077791;27;20054;-70
2021/01/11 12:24:25;;;;;;;40.15;27.48;;;4.90;95.40;;;;;;5101144;27;20039;-70
2021/01/11 12:26:51;;;;;;;39.30;28.58;;;4.80;95.70;;;;;;5113495;27;20168;-70
2021/01/11 12:29:17;;;;;;;40.72;28.13;;;5.00;95.30;;;;;;5112726;27;20039;-71
2021/01/11 12:31:44;;;;;;;41.25;29.15;;;5.00;95.30;;;;;;5101656;27;20052;-71
2021/01/11 12:34:11;;;;;;;36.58;26.95;;;4.90;95.50;;;;;;5104089;27;20052;-70
2021/01/11 12:36:38;;;;;;;36.15;26.60;;;4.90;95.40;;;;;;5100389;27;20122;-71
2021/01/11 12:39:09;;;;;;;38.17;27.65;;;4.90;95.10;;;;;;5115549;27;20051;-70
2021/01/11 12:41:36;;;;;;;35.78;26.27;;;4.90;95.30;;;;;;5086653;28;20136;-70
2021/01/11 12:44:05;;;;;;;34.50;22.60;;;5.00;95.50;;;;;;5097926;28;20044;-71
2021/01/11 12:46:31;;;;;;;35.65;25.70;;;5.00;95.10;;;;;;5089037;27;20047;-70